sensor_id;sensor_type;location;lat;lon;timestamp;P1;durP1;ratioP1;P2;durP2;ratioP2
5225;SDS011;2632;51.666;7.146;2023-11-19T00:01:33;8.70;;;7.53;;
5225;SDS011;2632;51.666;7.146;2023-11-19T00:04:00;9.00;;;8.10;;
5225;SDS011;2632;51.666;7.146;2023-11-19T00:06:26;10.75;;;8.98;;
5225;SDS011;2632;51.666;7.146;2023-11-19T00:08:53;11.97;;;9.60;;
5225;SDS011;2632;51.666;7.146;2023-11-19T00:11:20;11.90;;;9.30;;
5225;SDS011;2632;51.666;7.146;2023-11-19T00:13:47;13.05;;;10.88;;
5225;SDS011;2632;51.666;7.146;2023-11-19T00:16:14;13.30;;;10.70;;
5225;SDS011;2632;51.666;7.146;2023-11-19T00:18:42;13.93;;;10.90;;
5225;SDS011;2632;51.666;7.146;2023-11-19T00:21:09;14.60;;;12.13;;
5225;SDS011;2632;51.666;7.146;2023-11-19T00:23:37;17.88;;;13.10;;
5225;SDS011;2632;51.666;7.146;2023-11-19T00:26:04;17.65;;;12.77;;
5225;SDS011;2632;51.666;7.146;2023-11-19T00:28:32;21.92;;;14.70;;
5225;SDS011;2632;51.666;7.146;2023-11-19T00:30:59;22.20;;;15.40;;
5225;SDS011;2632;51.666;7.146;2023-11-19T00:33:26;22.30;;;16.30;;
5225;SDS011;2632;51.666;7.146;2023-11-19T00:35:53;23.92;;;16.17;;
5225;SDS011;2632;51.666;7.146;2023-11-19T00:38:19;23.92;;;15.90;;
5225;SDS011;2632;51.666;7.146;2023-11-19T00:40:46;22.10;;;16.83;;
5225;SDS011;2632;51.666;7.146;2023-11-19T00:43:13;24.13;;;17.20;;
5225;SDS011;2632;51.666;7.146;2023-11-19T00:45:40;23.17;;;16.92;;
5225;SDS011;2632;51.666;7.146;2023-11-19T00:48:06;23.38;;;17.40;;
5225;SDS011;2632;51.666;7.146;2023-11-19T00:50:33;24.93;;;17.23;;
5225;SDS011;2632;51.666;7.146;2023-11-19T00:53:03;24.55;;;17.50;;
5225;SDS011;2632;51.666;7.146;2023-11-19T00:55:30;27.65;;;19.40;;
5225;SDS011;2632;51.666;7.146;2023-11-19T00:57:57;26.88;;;18.40;;
5225;SDS011;2632;51.666;7.146;2023-11-19T01:00:24;28.20;;;19.45;;
5225;SDS011;2632;51.666;7.146;2023-11-19T01:02:53;28.08;;;19.95;;
5225;SDS011;2632;51.666;7.146;2023-11-19T01:05:20;33.65;;;21.98;;
5225;SDS011;2632;51.666;7.146;2023-11-19T01:07:50;30.80;;;20.70;;
5225;SDS011;2632;51.666;7.146;2023-11-19T01:10:18;31.93;;;21.60;;
5225;SDS011;2632;51.666;7.146;2023-11-19T01:12:45;31.83;;;21.30;;
5225;SDS011;2632;51.666;7.146;2023-11-19T01:15:12;29.77;;;21.90;;
5225;SDS011;2632;51.666;7.146;2023-11-19T01:17:39;31.45;;;21.33;;
5225;SDS011;2632;51.666;7.146;2023-11-19T01:20:18;28.37;;;20.63;;
5225;SDS011;2632;51.666;7.146;2023-11-19T01:22:46;28.98;;;21.00;;
5225;SDS011;2632;51.666;7.146;2023-11-19T01:25:14;32.70;;;21.95;;
5225;SDS011;2632;51.666;7.146;2023-11-19T01:27:41;31.80;;;21.50;;
5225;SDS011;2632;51.666;7.146;2023-11-19T01:30:08;28.67;;;21.48;;
5225;SDS011;2632;51.666;7.146;2023-11-19T01:32:39;33.15;;;22.85;;
5225;SDS011;2632;51.666;7.146;2023-11-19T01:35:07;29.77;;;22.02;;
5225;SDS011;2632;51.666;7.146;2023-11-19T01:37:37;33.53;;;22.50;;
5225;SDS011;2632;51.666;7.146;2023-11-19T01:40:03;29.80;;;21.60;;
5225;SDS011;2632;51.666;7.146;2023-11-19T01:42:40;29.77;;;21.70;;
5225;SDS011;2632;51.666;7.146;2023-11-19T01:45:07;25.00;;;17.85;;
5225;SDS011;2632;51.666;7.146;2023-11-19T01:47:35;22.38;;;17.63;;
5225;SDS011;2632;51.666;7.146;2023-11-19T01:50:03;28.23;;;17.17;;
5225;SDS011;2632;51.666;7.146;2023-11-19T01:52:32;20.92;;;15.25;;
5225;SDS011;2632;51.666;7.146;2023-11-19T01:55:04;17.30;;;13.55;;
5225;SDS011;2632;51.666;7.146;2023-11-19T01:57:34;17.17;;;13.27;;
5225;SDS011;2632;51.666;7.146;2023-11-19T02:00:03;18.60;;;14.10;;
5225;SDS011;2632;51.666;7.146;2023-11-19T02:02:31;21.15;;;13.60;;
5225;SDS011;2632;51.666;7.146;2023-11-19T02:04:59;19.90;;;13.60;;
5225;SDS011;2632;51.666;7.146;2023-11-19T02:07:26;17.52;;;14.07;;
5225;SDS011;2632;51.666;7.146;2023-11-19T02:09:53;17.40;;;13.70;;
5225;SDS011;2632;51.666;7.146;2023-11-19T02:12:19;18.90;;;12.90;;
5225;SDS011;2632;51.666;7.146;2023-11-19T02:14:46;14.43;;;11.80;;
5225;SDS011;2632;51.666;7.146;2023-11-19T02:17:28;16.33;;;12.35;;
5225;SDS011;2632;51.666;7.146;2023-11-19T02:20:00;16.67;;;12.10;;
5225;SDS011;2632;51.666;7.146;2023-11-19T02:22:27;15.70;;;12.02;;
5225;SDS011;2632;51.666;7.146;2023-11-19T02:24:58;17.15;;;11.98;;
5225;SDS011;2632;51.666;7.146;2023-11-19T02:30:13;14.88;;;10.60;;
5225;SDS011;2632;51.666;7.146;2023-11-19T02:32:41;13.63;;;10.77;;
5225;SDS011;2632;51.666;7.146;2023-11-19T02:35:08;15.77;;;10.63;;
5225;SDS011;2632;51.666;7.146;2023-11-19T02:37:35;18.40;;;11.10;;
5225;SDS011;2632;51.666;7.146;2023-11-19T02:40:02;13.68;;;10.23;;
5225;SDS011;2632;51.666;7.146;2023-11-19T02:42:29;17.63;;;10.55;;
5225;SDS011;2632;51.666;7.146;2023-11-19T02:44:56;15.95;;;9.77;;
5225;SDS011;2632;51.666;7.146;2023-11-19T02:47:23;14.45;;;9.40;;
5225;SDS011;2632;51.666;7.146;2023-11-19T02:49:50;13.15;;;8.95;;
5225;SDS011;2632;51.666;7.146;2023-11-19T02:52:19;17.27;;;10.02;;
5225;SDS011;2632;51.666;7.146;2023-11-19T02:54:45;16.97;;;9.50;;
5225;SDS011;2632;51.666;7.146;2023-11-19T02:57:12;17.40;;;9.40;;
5225;SDS011;2632;51.666;7.146;2023-11-19T02:59:47;15.45;;;8.50;;
5225;SDS011;2632;51.666;7.146;2023-11-19T03:02:14;14.82;;;8.95;;
5225;SDS011;2632;51.666;7.146;2023-11-19T03:04:42;15.13;;;8.80;;
5225;SDS011;2632;51.666;7.146;2023-11-19T03:07:10;13.85;;;7.20;;
5225;SDS011;2632;51.666;7.146;2023-11-19T03:09:36;17.67;;;7.50;;
5225;SDS011;2632;51.666;7.146;2023-11-19T03:12:06;15.90;;;7.32;;
5225;SDS011;2632;51.666;7.146;2023-11-19T03:14:33;13.27;;;6.82;;
5225;SDS011;2632;51.666;7.146;2023-11-19T03:17:03;15.93;;;6.60;;
5225;SDS011;2632;51.666;7.146;2023-11-19T03:19:31;18.55;;;7.38;;
5225;SDS011;2632;51.666;7.146;2023-11-19T03:21:58;11.48;;;6.57;;
5225;SDS011;2632;51.666;7.146;2023-11-19T03:24:25;14.60;;;6.13;;
5225;SDS011;2632;51.666;7.146;2023-11-19T03:26:52;18.73;;;6.25;;
5225;SDS011;2632;51.666;7.146;2023-11-19T03:29:19;12.95;;;5.82;;
5225;SDS011;2632;51.666;7.146;2023-11-19T03:31:46;12.50;;;5.40;;
5225;SDS011;2632;51.666;7.146;2023-11-19T03:34:12;13.00;;;5.65;;
5225;SDS011;2632;51.666;7.146;2023-11-19T03:36:39;13.40;;;5.70;;
5225;SDS011;2632;51.666;7.146;2023-11-19T03:39:06;14.93;;;5.28;;
5225;SDS011;2632;51.666;7.146;2023-11-19T03:41:33;13.32;;;5.50;;
5225;SDS011;2632;51.666;7.146;2023-11-19T03:44:02;13.07;;;5.25;;
5225;SDS011;2632;51.666;7.146;2023-11-19T03:46:29;12.57;;;5.23;;
5225;SDS011;2632;51.666;7.146;2023-11-19T03:48:56;14.43;;;4.80;;
5225;SDS011;2632;51.666;7.146;2023-11-19T03:51:23;13.10;;;5.18;;
5225;SDS011;2632;51.666;7.146;2023-11-19T03:53:49;11.40;;;4.95;;
5225;SDS011;2632;51.666;7.146;2023-11-19T03:56:16;13.33;;;5.00;;
5225;SDS011;2632;51.666;7.146;2023-11-19T03:58:43;13.88;;;4.80;;
5225;SDS011;2632;51.666;7.146;2023-11-19T04:01:12;13.10;;;4.43;;
5225;SDS011;2632;51.666;7.146;2023-11-19T04:03:42;12.23;;;4.18;;
5225;SDS011;2632;51.666;7.146;2023-11-19T04:06:11;10.10;;;3.97;;
5225;SDS011;2632;51.666;7.146;2023-11-19T04:08:38;14.57;;;4.40;;
5225;SDS011;2632;51.666;7.146;2023-11-19T04:11:05;14.77;;;4.80;;
5225;SDS011;2632;51.666;7.146;2023-11-19T04:13:32;13.77;;;4.27;;
5225;SDS011;2632;51.666;7.146;2023-11-19T04:15:59;15.95;;;4.45;;
5225;SDS011;2632;51.666;7.146;2023-11-19T04:18:27;14.73;;;5.15;;
5225;SDS011;2632;51.666;7.146;2023-11-19T04:20:54;16.77;;;4.70;;
5225;SDS011;2632;51.666;7.146;2023-11-19T04:23:20;23.40;;;5.00;;
5225;SDS011;2632;51.666;7.146;2023-11-19T04:25:47;22.83;;;5.67;;
5225;SDS011;2632;51.666;7.146;2023-11-19T04:28:14;18.23;;;5.40;;
5225;SDS011;2632;51.666;7.146;2023-11-19T04:30:41;17.23;;;4.83;;
5225;SDS011;2632;51.666;7.146;2023-11-19T04:33:07;22.95;;;5.78;;
5225;SDS011;2632;51.666;7.146;2023-11-19T04:35:34;17.27;;;5.07;;
5225;SDS011;2632;51.666;7.146;2023-11-19T04:38:01;17.42;;;5.20;;
5225;SDS011;2632;51.666;7.146;2023-11-19T04:40:27;19.13;;;5.30;;
5225;SDS011;2632;51.666;7.146;2023-11-19T04:42:54;21.40;;;5.30;;
5225;SDS011;2632;51.666;7.146;2023-11-19T04:45:21;20.27;;;5.30;;
5225;SDS011;2632;51.666;7.146;2023-11-19T04:47:48;18.63;;;4.80;;
5225;SDS011;2632;51.666;7.146;2023-11-19T04:50:14;18.67;;;4.65;;
5225;SDS011;2632;51.666;7.146;2023-11-19T04:52:41;16.05;;;4.97;;
5225;SDS011;2632;51.666;7.146;2023-11-19T04:55:12;19.52;;;4.95;;
5225;SDS011;2632;51.666;7.146;2023-11-19T04:57:40;19.85;;;4.80;;
5225;SDS011;2632;51.666;7.146;2023-11-19T05:00:07;18.17;;;4.60;;
5225;SDS011;2632;51.666;7.146;2023-11-19T05:02:37;25.48;;;4.68;;
5225;SDS011;2632;51.666;7.146;2023-11-19T05:05:04;24.03;;;4.70;;
5225;SDS011;2632;51.666;7.146;2023-11-19T05:07:31;18.05;;;4.45;;
5225;SDS011;2632;51.666;7.146;2023-11-19T05:09:58;20.23;;;4.40;;
5225;SDS011;2632;51.666;7.146;2023-11-19T05:12:25;22.98;;;4.80;;
5225;SDS011;2632;51.666;7.146;2023-11-19T05:14:52;20.13;;;5.00;;
5225;SDS011;2632;51.666;7.146;2023-11-19T05:17:19;25.58;;;5.30;;
5225;SDS011;2632;51.666;7.146;2023-11-19T05:19:46;25.92;;;5.10;;
5225;SDS011;2632;51.666;7.146;2023-11-19T05:22:14;28.33;;;5.57;;
5225;SDS011;2632;51.666;7.146;2023-11-19T05:24:40;28.20;;;5.15;;
5225;SDS011;2632;51.666;7.146;2023-11-19T05:27:07;21.35;;;5.75;;
5225;SDS011;2632;51.666;7.146;2023-11-19T05:29:34;22.38;;;5.72;;
5225;SDS011;2632;51.666;7.146;2023-11-19T05:32:01;22.10;;;5.32;;
5225;SDS011;2632;51.666;7.146;2023-11-19T05:34:27;23.30;;;5.30;;
5225;SDS011;2632;51.666;7.146;2023-11-19T05:36:55;31.48;;;6.13;;
5225;SDS011;2632;51.666;7.146;2023-11-19T05:39:21;32.37;;;5.63;;
5225;SDS011;2632;51.666;7.146;2023-11-19T05:41:48;29.65;;;6.35;;
5225;SDS011;2632;51.666;7.146;2023-11-19T05:44:15;24.75;;;6.30;;
5225;SDS011;2632;51.666;7.146;2023-11-19T05:46:42;27.98;;;6.32;;
5225;SDS011;2632;51.666;7.146;2023-11-19T05:49:10;25.48;;;6.03;;
5225;SDS011;2632;51.666;7.146;2023-11-19T05:51:37;24.65;;;6.70;;
5225;SDS011;2632;51.666;7.146;2023-11-19T05:54:08;25.42;;;6.20;;
5225;SDS011;2632;51.666;7.146;2023-11-19T05:56:36;27.92;;;6.90;;
5225;SDS011;2632;51.666;7.146;2023-11-19T05:59:03;25.42;;;6.63;;
5225;SDS011;2632;51.666;7.146;2023-11-19T06:01:34;27.97;;;7.07;;
5225;SDS011;2632;51.666;7.146;2023-11-19T06:04:01;26.65;;;6.53;;
5225;SDS011;2632;51.666;7.146;2023-11-19T06:06:28;27.98;;;6.85;;
5225;SDS011;2632;51.666;7.146;2023-11-19T06:08:55;27.38;;;6.50;;
5225;SDS011;2632;51.666;7.146;2023-11-19T06:11:21;28.00;;;6.20;;
5225;SDS011;2632;51.666;7.146;2023-11-19T06:13:48;30.73;;;5.90;;
5225;SDS011;2632;51.666;7.146;2023-11-19T06:16:16;30.80;;;6.50;;
5225;SDS011;2632;51.666;7.146;2023-11-19T06:18:43;34.50;;;6.13;;
5225;SDS011;2632;51.666;7.146;2023-11-19T06:21:11;25.47;;;6.13;;
5225;SDS011;2632;51.666;7.146;2023-11-19T06:23:38;24.10;;;6.10;;
5225;SDS011;2632;51.666;7.146;2023-11-19T06:26:05;22.93;;;6.10;;
5225;SDS011;2632;51.666;7.146;2023-11-19T06:28:32;31.35;;;6.50;;
5225;SDS011;2632;51.666;7.146;2023-11-19T06:30:58;23.85;;;5.18;;
5225;SDS011;2632;51.666;7.146;2023-11-19T06:33:25;28.10;;;6.18;;
5225;SDS011;2632;51.666;7.146;2023-11-19T06:35:53;26.95;;;5.70;;
5225;SDS011;2632;51.666;7.146;2023-11-19T06:38:20;23.52;;;5.20;;
5225;SDS011;2632;51.666;7.146;2023-11-19T06:40:47;29.10;;;5.40;;
5225;SDS011;2632;51.666;7.146;2023-11-19T06:43:18;23.85;;;5.47;;
5225;SDS011;2632;51.666;7.146;2023-11-19T06:45:45;24.05;;;5.38;;
5225;SDS011;2632;51.666;7.146;2023-11-19T06:48:12;21.17;;;5.35;;
5225;SDS011;2632;51.666;7.146;2023-11-19T06:50:38;23.73;;;5.80;;
5225;SDS011;2632;51.666;7.146;2023-11-19T06:53:05;27.43;;;5.47;;
5225;SDS011;2632;51.666;7.146;2023-11-19T06:55:36;24.00;;;5.53;;
5225;SDS011;2632;51.666;7.146;2023-11-19T06:58:03;28.70;;;5.82;;
5225;SDS011;2632;51.666;7.146;2023-11-19T07:00:29;24.50;;;6.10;;
5225;SDS011;2632;51.666;7.146;2023-11-19T07:02:59;28.42;;;5.72;;
5225;SDS011;2632;51.666;7.146;2023-11-19T07:05:26;30.25;;;5.35;;
5225;SDS011;2632;51.666;7.146;2023-11-19T07:07:53;27.40;;;5.70;;
5225;SDS011;2632;51.666;7.146;2023-11-19T07:10:20;30.42;;;5.90;;
5225;SDS011;2632;51.666;7.146;2023-11-19T07:12:47;24.17;;;5.55;;
5225;SDS011;2632;51.666;7.146;2023-11-19T07:15:16;24.45;;;5.22;;
5225;SDS011;2632;51.666;7.146;2023-11-19T07:17:43;25.83;;;5.80;;
5225;SDS011;2632;51.666;7.146;2023-11-19T07:20:11;24.70;;;5.80;;
5225;SDS011;2632;51.666;7.146;2023-11-19T07:22:39;29.10;;;5.25;;
5225;SDS011;2632;51.666;7.146;2023-11-19T07:25:06;24.55;;;5.90;;
5225;SDS011;2632;51.666;7.146;2023-11-19T07:27:34;22.10;;;5.47;;
5225;SDS011;2632;51.666;7.146;2023-11-19T07:30:01;22.73;;;6.00;;
5225;SDS011;2632;51.666;7.146;2023-11-19T07:32:28;28.08;;;6.00;;
5225;SDS011;2632;51.666;7.146;2023-11-19T07:34:54;23.65;;;5.45;;
5225;SDS011;2632;51.666;7.146;2023-11-19T07:37:22;25.83;;;6.22;;
5225;SDS011;2632;51.666;7.146;2023-11-19T07:39:49;29.00;;;6.00;;
5225;SDS011;2632;51.666;7.146;2023-11-19T07:42:15;28.13;;;5.40;;
5225;SDS011;2632;51.666;7.146;2023-11-19T07:44:45;26.05;;;5.60;;
5225;SDS011;2632;51.666;7.146;2023-11-19T07:47:12;26.48;;;6.10;;
5225;SDS011;2632;51.666;7.146;2023-11-19T07:49:38;27.33;;;5.93;;
5225;SDS011;2632;51.666;7.146;2023-11-19T07:52:05;30.25;;;5.95;;
5225;SDS011;2632;51.666;7.146;2023-11-19T07:54:47;28.20;;;5.97;;
5225;SDS011;2632;51.666;7.146;2023-11-19T07:57:13;27.40;;;5.47;;
5225;SDS011;2632;51.666;7.146;2023-11-19T07:59:40;24.05;;;5.53;;
5225;SDS011;2632;51.666;7.146;2023-11-19T08:02:07;24.15;;;5.78;;
5225;SDS011;2632;51.666;7.146;2023-11-19T08:04:34;23.58;;;5.35;;
5225;SDS011;2632;51.666;7.146;2023-11-19T08:07:01;28.40;;;5.90;;
5225;SDS011;2632;51.666;7.146;2023-11-19T08:09:28;27.67;;;5.72;;
5225;SDS011;2632;51.666;7.146;2023-11-19T08:11:54;29.70;;;5.50;;
5225;SDS011;2632;51.666;7.146;2023-11-19T08:14:22;27.50;;;5.40;;
5225;SDS011;2632;51.666;7.146;2023-11-19T08:16:50;29.20;;;6.07;;
5225;SDS011;2632;51.666;7.146;2023-11-19T08:19:17;29.10;;;5.60;;
5225;SDS011;2632;51.666;7.146;2023-11-19T08:21:44;30.08;;;5.82;;
5225;SDS011;2632;51.666;7.146;2023-11-19T08:24:10;23.40;;;5.25;;
5225;SDS011;2632;51.666;7.146;2023-11-19T08:26:37;31.45;;;6.00;;
5225;SDS011;2632;51.666;7.146;2023-11-19T08:29:04;26.90;;;6.28;;
5225;SDS011;2632;51.666;7.146;2023-11-19T08:31:30;30.67;;;6.28;;
5225;SDS011;2632;51.666;7.146;2023-11-19T08:33:57;27.13;;;5.70;;
5225;SDS011;2632;51.666;7.146;2023-11-19T08:36:24;28.48;;;5.30;;
5225;SDS011;2632;51.666;7.146;2023-11-19T08:38:51;23.45;;;5.57;;
5225;SDS011;2632;51.666;7.146;2023-11-19T08:41:18;29.13;;;5.20;;
5225;SDS011;2632;51.666;7.146;2023-11-19T08:43:45;30.90;;;5.53;;
5225;SDS011;2632;51.666;7.146;2023-11-19T08:46:12;22.42;;;5.38;;
5225;SDS011;2632;51.666;7.146;2023-11-19T08:48:39;23.57;;;5.60;;
5225;SDS011;2632;51.666;7.146;2023-11-19T08:51:06;30.02;;;5.88;;
5225;SDS011;2632;51.666;7.146;2023-11-19T08:53:33;27.92;;;5.45;;
5225;SDS011;2632;51.666;7.146;2023-11-19T08:56:00;25.70;;;5.32;;
5225;SDS011;2632;51.666;7.146;2023-11-19T08:58:29;31.48;;;5.50;;
5225;SDS011;2632;51.666;7.146;2023-11-19T09:00:57;25.63;;;5.53;;
5225;SDS011;2632;51.666;7.146;2023-11-19T09:03:24;31.08;;;5.88;;
5225;SDS011;2632;51.666;7.146;2023-11-19T09:05:56;24.15;;;5.50;;
5225;SDS011;2632;51.666;7.146;2023-11-19T09:08:23;23.00;;;5.60;;
5225;SDS011;2632;51.666;7.146;2023-11-19T09:10:50;21.70;;;5.20;;
5225;SDS011;2632;51.666;7.146;2023-11-19T09:13:17;27.27;;;5.53;;
5225;SDS011;2632;51.666;7.146;2023-11-19T09:15:44;29.45;;;5.68;;
5225;SDS011;2632;51.666;7.146;2023-11-19T09:18:10;28.15;;;6.10;;
5225;SDS011;2632;51.666;7.146;2023-11-19T09:20:39;22.17;;;5.20;;
5225;SDS011;2632;51.666;7.146;2023-11-19T09:23:06;29.23;;;5.90;;
5225;SDS011;2632;51.666;7.146;2023-11-19T09:25:34;23.08;;;5.05;;
5225;SDS011;2632;51.666;7.146;2023-11-19T09:28:03;31.25;;;5.80;;
5225;SDS011;2632;51.666;7.146;2023-11-19T09:30:30;28.60;;;6.05;;
5225;SDS011;2632;51.666;7.146;2023-11-19T09:32:59;28.83;;;5.93;;
5225;SDS011;2632;51.666;7.146;2023-11-19T09:35:26;28.20;;;5.43;;
5225;SDS011;2632;51.666;7.146;2023-11-19T09:37:53;27.73;;;5.50;;
5225;SDS011;2632;51.666;7.146;2023-11-19T09:40:20;25.67;;;5.88;;
5225;SDS011;2632;51.666;7.146;2023-11-19T09:42:47;27.35;;;5.82;;
5225;SDS011;2632;51.666;7.146;2023-11-19T09:45:15;27.10;;;6.20;;
5225;SDS011;2632;51.666;7.146;2023-11-19T09:47:46;29.23;;;6.30;;
5225;SDS011;2632;51.666;7.146;2023-11-19T09:50:16;32.58;;;6.30;;
5225;SDS011;2632;51.666;7.146;2023-11-19T09:52:45;28.75;;;5.63;;
5225;SDS011;2632;51.666;7.146;2023-11-19T09:55:13;28.42;;;5.78;;
5225;SDS011;2632;51.666;7.146;2023-11-19T09:57:40;34.85;;;6.00;;
5225;SDS011;2632;51.666;7.146;2023-11-19T10:00:10;23.98;;;5.55;;
5225;SDS011;2632;51.666;7.146;2023-11-19T10:02:39;25.48;;;5.35;;
5225;SDS011;2632;51.666;7.146;2023-11-19T10:05:06;19.83;;;5.50;;
5225;SDS011;2632;51.666;7.146;2023-11-19T10:07:34;28.08;;;5.40;;
5225;SDS011;2632;51.666;7.146;2023-11-19T10:10:01;29.90;;;6.20;;
5225;SDS011;2632;51.666;7.146;2023-11-19T10:12:30;24.65;;;5.80;;
5225;SDS011;2632;51.666;7.146;2023-11-19T10:14:57;26.90;;;5.60;;
5225;SDS011;2632;51.666;7.146;2023-11-19T10:17:33;24.38;;;5.47;;
5225;SDS011;2632;51.666;7.146;2023-11-19T10:20:01;22.30;;;6.00;;
5225;SDS011;2632;51.666;7.146;2023-11-19T10:22:29;27.30;;;5.70;;
5225;SDS011;2632;51.666;7.146;2023-11-19T10:24:56;26.70;;;5.15;;
5225;SDS011;2632;51.666;7.146;2023-11-19T10:27:25;29.15;;;6.40;;
5225;SDS011;2632;51.666;7.146;2023-11-19T10:29:52;28.90;;;5.60;;
5225;SDS011;2632;51.666;7.146;2023-11-19T10:32:25;26.20;;;5.70;;
5225;SDS011;2632;51.666;7.146;2023-11-19T10:35:04;28.20;;;5.93;;
5225;SDS011;2632;51.666;7.146;2023-11-19T10:37:32;25.33;;;5.73;;
5225;SDS011;2632;51.666;7.146;2023-11-19T10:40:02;28.98;;;6.13;;
5225;SDS011;2632;51.666;7.146;2023-11-19T10:42:31;26.15;;;5.80;;
5225;SDS011;2632;51.666;7.146;2023-11-19T10:44:57;24.65;;;5.22;;
5225;SDS011;2632;51.666;7.146;2023-11-19T10:47:24;30.75;;;6.47;;
5225;SDS011;2632;51.666;7.146;2023-11-19T10:49:54;21.23;;;5.35;;
5225;SDS011;2632;51.666;7.146;2023-11-19T10:52:21;29.40;;;5.53;;
5225;SDS011;2632;51.666;7.146;2023-11-19T10:54:50;29.88;;;6.28;;
5225;SDS011;2632;51.666;7.146;2023-11-19T10:57:21;29.90;;;5.80;;
5225;SDS011;2632;51.666;7.146;2023-11-19T10:59:49;22.08;;;5.75;;
5225;SDS011;2632;51.666;7.146;2023-11-19T11:02:22;26.08;;;5.60;;
5225;SDS011;2632;51.666;7.146;2023-11-19T11:04:53;23.00;;;5.43;;
5225;SDS011;2632;51.666;7.146;2023-11-19T11:07:24;22.17;;;5.03;;
5225;SDS011;2632;51.666;7.146;2023-11-19T11:10:01;27.33;;;5.60;;
5225;SDS011;2632;51.666;7.146;2023-11-19T11:12:32;28.70;;;5.50;;
5225;SDS011;2632;51.666;7.146;2023-11-19T11:15:03;26.30;;;5.50;;
5225;SDS011;2632;51.666;7.146;2023-11-19T11:17:32;27.97;;;5.47;;
5225;SDS011;2632;51.666;7.146;2023-11-19T11:20:00;28.67;;;5.73;;
5225;SDS011;2632;51.666;7.146;2023-11-19T11:22:28;26.88;;;5.68;;
5225;SDS011;2632;51.666;7.146;2023-11-19T11:30:51;30.58;;;5.95;;
5225;SDS011;2632;51.666;7.146;2023-11-19T11:33:40;24.77;;;5.63;;
5225;SDS011;2632;51.666;7.146;2023-11-19T11:36:30;23.52;;;5.32;;
5225;SDS011;2632;51.666;7.146;2023-11-19T11:39:04;24.88;;;5.43;;
5225;SDS011;2632;51.666;7.146;2023-11-19T11:41:34;25.00;;;5.95;;
5225;SDS011;2632;51.666;7.146;2023-11-19T11:44:00;24.23;;;6.00;;
5225;SDS011;2632;51.666;7.146;2023-11-19T11:49:04;24.45;;;5.30;;
5225;SDS011;2632;51.666;7.146;2023-11-19T11:59:36;24.52;;;5.25;;
5225;SDS011;2632;51.666;7.146;2023-11-19T12:02:04;20.50;;;5.47;;
5225;SDS011;2632;51.666;7.146;2023-11-19T12:04:35;21.45;;;5.30;;
5225;SDS011;2632;51.666;7.146;2023-11-19T12:07:03;21.20;;;4.72;;
5225;SDS011;2632;51.666;7.146;2023-11-19T12:09:37;21.13;;;5.10;;
5225;SDS011;2632;51.666;7.146;2023-11-19T12:12:18;19.73;;;4.70;;
5225;SDS011;2632;51.666;7.146;2023-11-19T12:15:04;22.10;;;5.17;;
5225;SDS011;2632;51.666;7.146;2023-11-19T12:20:02;20.75;;;4.57;;
5225;SDS011;2632;51.666;7.146;2023-11-19T12:22:32;20.77;;;5.18;;
5225;SDS011;2632;51.666;7.146;2023-11-19T12:24:59;22.63;;;4.40;;
5225;SDS011;2632;51.666;7.146;2023-11-19T12:27:26;20.10;;;5.18;;
5225;SDS011;2632;51.666;7.146;2023-11-19T12:29:54;26.55;;;5.47;;
5225;SDS011;2632;51.666;7.146;2023-11-19T12:32:23;23.13;;;5.17;;
5225;SDS011;2632;51.666;7.146;2023-11-19T12:34:49;22.85;;;4.57;;
5225;SDS011;2632;51.666;7.146;2023-11-19T12:37:16;24.77;;;5.32;;
5225;SDS011;2632;51.666;7.146;2023-11-19T12:39:43;20.30;;;4.70;;
5225;SDS011;2632;51.666;7.146;2023-11-19T12:42:10;24.08;;;5.20;;
5225;SDS011;2632;51.666;7.146;2023-11-19T12:44:38;20.02;;;4.20;;
5225;SDS011;2632;51.666;7.146;2023-11-19T12:47:06;20.50;;;4.50;;
5225;SDS011;2632;51.666;7.146;2023-11-19T12:49:33;20.27;;;4.80;;
5225;SDS011;2632;51.666;7.146;2023-11-19T12:52:00;20.50;;;4.47;;
5225;SDS011;2632;51.666;7.146;2023-11-19T12:54:36;19.20;;;3.97;;
5225;SDS011;2632;51.666;7.146;2023-11-19T12:57:04;16.75;;;4.10;;
5225;SDS011;2632;51.666;7.146;2023-11-19T12:59:31;21.50;;;4.65;;
5225;SDS011;2632;51.666;7.146;2023-11-19T13:01:58;18.95;;;4.75;;
5225;SDS011;2632;51.666;7.146;2023-11-19T13:04:29;18.27;;;3.78;;
5225;SDS011;2632;51.666;7.146;2023-11-19T13:06:59;16.05;;;3.83;;
5225;SDS011;2632;51.666;7.146;2023-11-19T13:09:31;16.10;;;3.42;;
5225;SDS011;2632;51.666;7.146;2023-11-19T13:11:58;21.15;;;4.05;;
5225;SDS011;2632;51.666;7.146;2023-11-19T13:14:35;17.00;;;3.97;;
5225;SDS011;2632;51.666;7.146;2023-11-19T13:17:04;18.38;;;4.18;;
5225;SDS011;2632;51.666;7.146;2023-11-19T13:19:31;18.42;;;4.60;;
5225;SDS011;2632;51.666;7.146;2023-11-19T13:21:58;16.85;;;4.00;;
5225;SDS011;2632;51.666;7.146;2023-11-19T13:24:25;18.33;;;4.03;;
5225;SDS011;2632;51.666;7.146;2023-11-19T13:26:51;22.47;;;4.40;;
5225;SDS011;2632;51.666;7.146;2023-11-19T13:29:18;16.02;;;4.20;;
5225;SDS011;2632;51.666;7.146;2023-11-19T13:31:45;19.88;;;4.35;;
5225;SDS011;2632;51.666;7.146;2023-11-19T13:34:11;19.23;;;4.80;;
5225;SDS011;2632;51.666;7.146;2023-11-19T13:36:38;18.77;;;4.40;;
5225;SDS011;2632;51.666;7.146;2023-11-19T13:39:05;18.10;;;4.43;;
5225;SDS011;2632;51.666;7.146;2023-11-19T13:41:33;19.13;;;4.40;;
5225;SDS011;2632;51.666;7.146;2023-11-19T13:43:59;16.35;;;4.13;;
5225;SDS011;2632;51.666;7.146;2023-11-19T13:46:27;18.17;;;4.10;;
5225;SDS011;2632;51.666;7.146;2023-11-19T13:48:53;19.95;;;4.40;;
5225;SDS011;2632;51.666;7.146;2023-11-19T13:51:20;16.00;;;4.00;;
5225;SDS011;2632;51.666;7.146;2023-11-19T13:53:47;17.45;;;3.40;;
5225;SDS011;2632;51.666;7.146;2023-11-19T13:56:17;19.30;;;4.90;;
5225;SDS011;2632;51.666;7.146;2023-11-19T13:58:44;18.38;;;3.83;;
5225;SDS011;2632;51.666;7.146;2023-11-19T14:01:11;21.08;;;4.93;;
5225;SDS011;2632;51.666;7.146;2023-11-19T14:03:39;20.70;;;4.50;;
5225;SDS011;2632;51.666;7.146;2023-11-19T14:06:06;15.65;;;3.92;;
5225;SDS011;2632;51.666;7.146;2023-11-19T14:08:34;16.80;;;3.40;;
5225;SDS011;2632;51.666;7.146;2023-11-19T14:11:01;17.10;;;4.10;;
5225;SDS011;2632;51.666;7.146;2023-11-19T14:13:28;18.17;;;4.30;;
5225;SDS011;2632;51.666;7.146;2023-11-19T14:15:55;14.43;;;4.38;;
5225;SDS011;2632;51.666;7.146;2023-11-19T14:18:22;19.25;;;5.00;;
5225;SDS011;2632;51.666;7.146;2023-11-19T14:20:49;18.60;;;4.75;;
5225;SDS011;2632;51.666;7.146;2023-11-19T14:23:15;25.83;;;5.15;;
5225;SDS011;2632;51.666;7.146;2023-11-19T14:25:42;19.83;;;4.50;;
5225;SDS011;2632;51.666;7.146;2023-11-19T14:28:09;18.60;;;5.10;;
5225;SDS011;2632;51.666;7.146;2023-11-19T14:30:36;20.13;;;5.55;;
5225;SDS011;2632;51.666;7.146;2023-11-19T14:33:03;20.45;;;5.60;;
5225;SDS011;2632;51.666;7.146;2023-11-19T14:35:31;23.50;;;5.70;;
5225;SDS011;2632;51.666;7.146;2023-11-19T14:38:00;20.05;;;5.30;;
5225;SDS011;2632;51.666;7.146;2023-11-19T14:40:31;19.70;;;5.20;;
5225;SDS011;2632;51.666;7.146;2023-11-19T14:43:00;17.23;;;4.30;;
5225;SDS011;2632;51.666;7.146;2023-11-19T14:45:27;19.65;;;4.60;;
5225;SDS011;2632;51.666;7.146;2023-11-19T14:47:56;19.90;;;4.70;;
5225;SDS011;2632;51.666;7.146;2023-11-19T14:50:23;15.95;;;4.10;;
5225;SDS011;2632;51.666;7.146;2023-11-19T14:52:50;18.13;;;4.50;;
5225;SDS011;2632;51.666;7.146;2023-11-19T14:55:16;14.20;;;3.70;;
5225;SDS011;2632;51.666;7.146;2023-11-19T14:57:43;15.02;;;4.10;;
5225;SDS011;2632;51.666;7.146;2023-11-19T15:00:23;17.48;;;3.95;;
5225;SDS011;2632;51.666;7.146;2023-11-19T15:02:51;18.88;;;4.57;;
5225;SDS011;2632;51.666;7.146;2023-11-19T15:05:18;17.98;;;4.53;;
5225;SDS011;2632;51.666;7.146;2023-11-19T15:07:45;18.83;;;4.82;;
5225;SDS011;2632;51.666;7.146;2023-11-19T15:10:12;14.40;;;4.65;;
5225;SDS011;2632;51.666;7.146;2023-11-19T15:12:39;16.88;;;4.20;;
5225;SDS011;2632;51.666;7.146;2023-11-19T15:15:08;16.85;;;4.50;;
5225;SDS011;2632;51.666;7.146;2023-11-19T15:18:00;14.00;;;4.10;;
5225;SDS011;2632;51.666;7.146;2023-11-19T15:20:27;16.00;;;4.78;;
5225;SDS011;2632;51.666;7.146;2023-11-19T15:22:57;16.20;;;4.50;;
5225;SDS011;2632;51.666;7.146;2023-11-19T15:25:24;17.38;;;4.50;;
5225;SDS011;2632;51.666;7.146;2023-11-19T15:27:51;20.60;;;4.60;;